Lacy, Texas
Current Conditions -  °F | °C
As of 4:53 PM on Friday 19 Dec 2014 (Local Time) from KLFK Reporting Station
Overcast Overcast  
Wind Chill: 54°   Ceiling: 800
Heat Index: 54°   Visibility: 10mi
Dew Point: 49°   Wind: 6mph
Humidity: 83%   Direction: 20°NNE
Pressure: 30.09"   Gusts: NA
Location:  31.0585°N, 95.0561°W
Report Text: KLFK 192253Z AUTO 02005KT 10SM OVC008 12/09 A3009 RMK AO2 CIG 007V013 SLP187 T01220094
Loading
Personal Weather Stations






























Interactive Weather Map New forecast layout! Learn more

10-Day Weather Forecast

Advertisements
Track Severe Weather on mobile